sensor_id;sensor_type;location;lat;lon;timestamp;noise_LAeq;noise_LA_min;noise_LA_max;noise_LA01;noise_LA95
186;Laerm;55473;48.800;9.002;2023-02-20T00:00:30;46.91;36.59;61.69;;
186;Laerm;55473;48.800;9.002;2023-02-20T00:02:56;38.74;36.75;53.53;;
186;Laerm;55473;48.800;9.002;2023-02-20T00:05:23;39.47;36.54;51.94;;
186;Laerm;55473;48.800;9.002;2023-02-20T00:07:49;39.09;37.02;46.25;;
186;Laerm;55473;48.800;9.002;2023-02-20T00:10:16;40.27;36.37;61.37;;
186;Laerm;55473;48.800;9.002;2023-02-20T00:12:42;40.21;36.60;47.36;;
186;Laerm;55473;48.800;9.002;2023-02-20T00:15:09;39.78;34.76;49.73;;
186;Laerm;55473;48.800;9.002;2023-02-20T00:17:38;45.76;34.50;61.26;;
186;Laerm;55473;48.800;9.002;2023-02-20T00:20:05;36.49;33.65;58.37;;
186;Laerm;55473;48.800;9.002;2023-02-20T00:22:31;37.77;34.05;52.72;;
186;Laerm;55473;48.800;9.002;2023-02-20T00:24:57;40.81;34.11;57.69;;
186;Laerm;55473;48.800;9.002;2023-02-20T00:27:23;36.07;33.87;43.78;;
186;Laerm;55473;48.800;9.002;2023-02-20T00:29:48;35.79;33.94;45.01;;
186;Laerm;55473;48.800;9.002;2023-02-20T00:32:15;36.56;33.67;43.84;;
186;Laerm;55473;48.800;9.002;2023-02-20T00:34:40;36.53;34.06;41.62;;
186;Laerm;55473;48.800;9.002;2023-02-20T00:37:06;36.94;33.79;46.77;;
186;Laerm;55473;48.800;9.002;2023-02-20T00:39:33;35.71;33.76;38.61;;
186;Laerm;55473;48.800;9.002;2023-02-20T00:41:59;38.27;34.20;43.74;;
186;Laerm;55473;48.800;9.002;2023-02-20T00:44:25;35.80;34.01;38.48;;
186;Laerm;55473;48.800;9.002;2023-02-20T00:46:51;35.50;33.59;37.42;;
186;Laerm;55473;48.800;9.002;2023-02-20T00:49:17;35.90;34.03;47.46;;
186;Laerm;55473;48.800;9.002;2023-02-20T00:51:43;35.87;33.72;40.32;;
186;Laerm;55473;48.800;9.002;2023-02-20T00:54:09;36.89;34.47;44.01;;
186;Laerm;55473;48.800;9.002;2023-02-20T00:56:35;35.71;33.84;49.88;;
186;Laerm;55473;48.800;9.002;2023-02-20T00:59:01;35.65;33.66;37.93;;
186;Laerm;55473;48.800;9.002;2023-02-20T01:01:27;36.10;33.40;47.09;;
186;Laerm;55473;48.800;9.002;2023-02-20T01:03:53;36.32;34.20;40.65;;
186;Laerm;55473;48.800;9.002;2023-02-20T01:06:18;35.94;33.97;38.04;;
186;Laerm;55473;48.800;9.002;2023-02-20T01:08:44;36.54;34.03;45.58;;
186;Laerm;55473;48.800;9.002;2023-02-20T01:11:10;35.99;33.90;42.64;;
186;Laerm;55473;48.800;9.002;2023-02-20T01:13:36;37.05;34.27;46.77;;
186;Laerm;55473;48.800;9.002;2023-02-20T01:16:04;36.56;33.90;41.74;;
186;Laerm;55473;48.800;9.002;2023-02-20T01:18:30;37.19;34.25;45.04;;
186;Laerm;55473;48.800;9.002;2023-02-20T01:20:56;36.26;34.04;45.26;;
186;Laerm;55473;48.800;9.002;2023-02-20T01:23:22;39.15;33.82;62.01;;
186;Laerm;55473;48.800;9.002;2023-02-20T01:25:48;36.15;34.11;39.06;;
186;Laerm;55473;48.800;9.002;2023-02-20T01:28:14;36.05;34.17;40.51;;
186;Laerm;55473;48.800;9.002;2023-02-20T01:30:40;35.87;34.23;38.97;;
186;Laerm;55473;48.800;9.002;2023-02-20T01:33:06;36.12;34.12;38.29;;
186;Laerm;55473;48.800;9.002;2023-02-20T01:35:31;36.86;34.20;42.56;;
186;Laerm;55473;48.800;9.002;2023-02-20T01:37:58;36.30;34.31;51.71;;
186;Laerm;55473;48.800;9.002;2023-02-20T01:40:26;36.42;34.23;39.19;;
186;Laerm;55473;48.800;9.002;2023-02-20T01:42:53;38.67;34.34;46.06;;
186;Laerm;55473;48.800;9.002;2023-02-20T01:47:51;36.37;34.20;41.67;;
186;Laerm;55473;48.800;9.002;2023-02-20T01:50:41;36.08;34.43;41.50;;
186;Laerm;55473;48.800;9.002;2023-02-20T01:53:19;36.13;34.22;43.94;;
186;Laerm;55473;48.800;9.002;2023-02-20T01:56:02;36.21;34.24;42.89;;
186;Laerm;55473;48.800;9.002;2023-02-20T01:58:40;36.16;34.23;41.99;;
186;Laerm;55473;48.800;9.002;2023-02-20T02:01:07;36.27;34.04;41.51;;
186;Laerm;55473;48.800;9.002;2023-02-20T02:03:40;36.03;33.68;41.19;;
186;Laerm;55473;48.800;9.002;2023-02-20T02:06:12;37.19;34.27;43.52;;
186;Laerm;55473;48.800;9.002;2023-02-20T02:08:40;36.42;33.93;45.66;;
186;Laerm;55473;48.800;9.002;2023-02-20T02:11:12;36.38;34.32;39.31;;
186;Laerm;55473;48.800;9.002;2023-02-20T02:13:39;36.24;34.35;52.88;;
186;Laerm;55473;48.800;9.002;2023-02-20T02:25:31;37.14;34.51;43.45;;
186;Laerm;55473;48.800;9.002;2023-02-20T02:42:57;37.96;34.39;51.08;;
186;Laerm;55473;48.800;9.002;2023-02-20T02:46:13;37.96;34.57;50.93;;
186;Laerm;55473;48.800;9.002;2023-02-20T02:48:29;37.73;34.42;50.91;;
186;Laerm;55473;48.800;9.002;2023-02-20T02:51:20;40.91;34.42;63.78;;
186;Laerm;55473;48.800;9.002;2023-02-20T02:56:43;41.36;35.00;52.03;;
186;Laerm;55473;48.800;9.002;2023-02-20T02:59:24;43.47;39.23;51.82;;
186;Laerm;55473;48.800;9.002;2023-02-20T03:02:02;46.52;38.34;57.41;;
186;Laerm;55473;48.800;9.002;2023-02-20T03:04:33;40.43;35.73;50.58;;
186;Laerm;55473;48.800;9.002;2023-02-20T03:07:08;42.70;36.06;54.13;;
186;Laerm;55473;48.800;9.002;2023-02-20T03:09:47;45.74;36.67;55.21;;
186;Laerm;55473;48.800;9.002;2023-02-20T03:12:18;47.48;36.41;61.40;;
186;Laerm;55473;48.800;9.002;2023-02-20T03:15:11;46.78;39.06;61.00;;
186;Laerm;55473;48.800;9.002;2023-02-20T03:18:30;42.95;37.00;54.10;;
186;Laerm;55473;48.800;9.002;2023-02-20T03:21:12;46.61;37.29;54.57;;
186;Laerm;55473;48.800;9.002;2023-02-20T03:23:45;40.55;35.71;50.11;;
186;Laerm;55473;48.800;9.002;2023-02-20T03:26:21;40.33;35.79;55.73;;
186;Laerm;55473;48.800;9.002;2023-02-20T03:29:02;40.23;35.30;52.48;;
186;Laerm;55473;48.800;9.002;2023-02-20T03:31:49;41.44;35.99;50.29;;
186;Laerm;55473;48.800;9.002;2023-02-20T03:34:37;45.93;35.86;62.50;;
186;Laerm;55473;48.800;9.002;2023-02-20T03:37:26;45.60;36.87;58.03;;
186;Laerm;55473;48.800;9.002;2023-02-20T03:40:15;40.34;36.30;50.73;;
186;Laerm;55473;48.800;9.002;2023-02-20T03:43:10;45.79;36.18;72.04;;
186;Laerm;55473;48.800;9.002;2023-02-20T03:46:17;40.59;35.78;52.19;;
186;Laerm;55473;48.800;9.002;2023-02-20T03:49:03;40.50;36.77;52.22;;
186;Laerm;55473;48.800;9.002;2023-02-20T03:51:29;40.74;35.81;52.06;;
186;Laerm;55473;48.800;9.002;2023-02-20T03:53:56;40.82;35.97;50.37;;
186;Laerm;55473;48.800;9.002;2023-02-20T03:56:36;43.33;37.05;61.10;;
186;Laerm;55473;48.800;9.002;2023-02-20T03:59:32;43.75;36.55;62.30;;
186;Laerm;55473;48.800;9.002;2023-02-20T04:02:10;43.66;36.50;59.42;;
186;Laerm;55473;48.800;9.002;2023-02-20T04:04:48;41.62;36.75;57.85;;
186;Laerm;55473;48.800;9.002;2023-02-20T04:07:23;40.38;36.39;50.34;;
186;Laerm;55473;48.800;9.002;2023-02-20T04:09:55;41.36;37.26;56.14;;
186;Laerm;55473;48.800;9.002;2023-02-20T04:12:38;42.14;36.81;50.49;;
186;Laerm;55473;48.800;9.002;2023-02-20T04:15:08;42.06;37.49;51.71;;
186;Laerm;55473;48.800;9.002;2023-02-20T04:17:46;41.27;37.22;48.88;;
186;Laerm;55473;48.800;9.002;2023-02-20T04:20:13;41.99;36.99;61.95;;
186;Laerm;55473;48.800;9.002;2023-02-20T04:22:46;43.79;36.89;60.68;;
186;Laerm;55473;48.800;9.002;2023-02-20T04:27:47;41.35;37.20;49.55;;
186;Laerm;55473;48.800;9.002;2023-02-20T04:30:13;42.96;38.98;53.75;;
186;Laerm;55473;48.800;9.002;2023-02-20T04:32:39;43.56;39.77;49.81;;
186;Laerm;55473;48.800;9.002;2023-02-20T04:35:06;43.29;39.52;51.78;;
186;Laerm;55473;48.800;9.002;2023-02-20T04:37:32;42.92;39.15;51.67;;
186;Laerm;55473;48.800;9.002;2023-02-20T04:39:58;44.71;39.53;51.89;;
186;Laerm;55473;48.800;9.002;2023-02-20T04:42:23;43.77;38.24;60.57;;
186;Laerm;55473;48.800;9.002;2023-02-20T04:44:49;43.86;39.21;53.29;;
186;Laerm;55473;48.800;9.002;2023-02-20T04:47:17;45.95;39.76;54.54;;
186;Laerm;55473;48.800;9.002;2023-02-20T04:49:43;46.85;40.94;63.67;;
186;Laerm;55473;48.800;9.002;2023-02-20T04:52:09;45.94;40.26;57.22;;
186;Laerm;55473;48.800;9.002;2023-02-20T04:54:35;45.00;39.25;59.00;;
186;Laerm;55473;48.800;9.002;2023-02-20T04:57:01;45.08;38.98;62.42;;
186;Laerm;55473;48.800;9.002;2023-02-20T04:59:26;44.31;39.25;58.93;;
186;Laerm;55473;48.800;9.002;2023-02-20T05:01:52;47.36;38.73;62.36;;
186;Laerm;55473;48.800;9.002;2023-02-20T05:04:20;48.46;39.30;66.78;;
186;Laerm;55473;48.800;9.002;2023-02-20T05:06:51;47.68;39.07;64.04;;
186;Laerm;55473;48.800;9.002;2023-02-20T05:09:19;43.49;38.82;59.61;;
186;Laerm;55473;48.800;9.002;2023-02-20T05:11:46;43.97;39.29;55.10;;
186;Laerm;55473;48.800;9.002;2023-02-20T05:14:12;50.76;39.95;62.95;;
186;Laerm;55473;48.800;9.002;2023-02-20T05:16:40;48.34;39.34;62.20;;
186;Laerm;55473;48.800;9.002;2023-02-20T05:19:07;48.26;40.09;60.33;;
186;Laerm;55473;48.800;9.002;2023-02-20T05:21:34;48.91;40.00;64.02;;
186;Laerm;55473;48.800;9.002;2023-02-20T05:24:19;50.43;38.90;65.75;;
186;Laerm;55473;48.800;9.002;2023-02-20T05:26:45;48.16;39.59;64.41;;
186;Laerm;55473;48.800;9.002;2023-02-20T05:29:11;47.30;39.53;62.84;;
186;Laerm;55473;48.800;9.002;2023-02-20T05:31:39;48.26;40.70;61.42;;
186;Laerm;55473;48.800;9.002;2023-02-20T05:34:06;49.45;41.56;67.13;;
186;Laerm;55473;48.800;9.002;2023-02-20T05:36:32;48.00;41.51;63.52;;
186;Laerm;55473;48.800;9.002;2023-02-20T05:38:58;50.23;41.16;65.87;;
186;Laerm;55473;48.800;9.002;2023-02-20T05:41:24;52.37;41.90;67.82;;
186;Laerm;55473;48.800;9.002;2023-02-20T05:43:50;51.61;41.94;69.39;;
186;Laerm;55473;48.800;9.002;2023-02-20T05:46:16;50.06;42.62;64.03;;
186;Laerm;55473;48.800;9.002;2023-02-20T05:48:42;49.95;42.96;65.91;;
186;Laerm;55473;48.800;9.002;2023-02-20T05:51:08;47.52;42.41;61.65;;
186;Laerm;55473;48.800;9.002;2023-02-20T05:53:34;52.89;42.09;75.97;;
186;Laerm;55473;48.800;9.002;2023-02-20T05:56:00;46.94;41.63;59.12;;
186;Laerm;55473;48.800;9.002;2023-02-20T05:58:26;47.93;40.81;57.58;;
186;Laerm;55473;48.800;9.002;2023-02-20T06:00:52;45.90;40.78;56.20;;
186;Laerm;55473;48.800;9.002;2023-02-20T06:03:18;51.67;42.94;68.16;;
186;Laerm;55473;48.800;9.002;2023-02-20T06:05:44;50.26;43.93;62.77;;
186;Laerm;55473;48.800;9.002;2023-02-20T06:08:10;50.40;42.08;61.13;;
186;Laerm;55473;48.800;9.002;2023-02-20T06:10:35;51.05;41.24;68.86;;
186;Laerm;55473;48.800;9.002;2023-02-20T06:13:01;47.62;41.43;57.45;;
186;Laerm;55473;48.800;9.002;2023-02-20T06:15:27;55.96;41.32;72.86;;
186;Laerm;55473;48.800;9.002;2023-02-20T06:17:53;48.26;42.16;66.11;;
186;Laerm;55473;48.800;9.002;2023-02-20T06:20:19;50.23;42.21;66.41;;
186;Laerm;55473;48.800;9.002;2023-02-20T06:22:48;51.86;43.44;62.68;;
186;Laerm;55473;48.800;9.002;2023-02-20T06:25:14;50.78;40.91;64.82;;
186;Laerm;55473;48.800;9.002;2023-02-20T06:27:40;50.21;43.03;62.67;;
186;Laerm;55473;48.800;9.002;2023-02-20T06:30:07;49.84;42.53;61.25;;
186;Laerm;55473;48.800;9.002;2023-02-20T06:32:33;49.80;42.67;70.23;;
186;Laerm;55473;48.800;9.002;2023-02-20T06:34:59;49.62;42.85;64.81;;
186;Laerm;55473;48.800;9.002;2023-02-20T06:37:25;48.95;42.77;59.25;;
186;Laerm;55473;48.800;9.002;2023-02-20T06:39:51;50.39;45.19;60.52;;
186;Laerm;55473;48.800;9.002;2023-02-20T06:42:17;51.80;43.71;63.50;;
186;Laerm;55473;48.800;9.002;2023-02-20T06:44:43;50.22;43.61;61.67;;
186;Laerm;55473;48.800;9.002;2023-02-20T06:47:09;51.25;42.77;68.53;;
186;Laerm;55473;48.800;9.002;2023-02-20T06:49:35;47.83;43.21;58.38;;
186;Laerm;55473;48.800;9.002;2023-02-20T06:52:04;49.15;41.51;68.85;;
186;Laerm;55473;48.800;9.002;2023-02-20T06:54:30;55.52;41.65;70.43;;
186;Laerm;55473;48.800;9.002;2023-02-20T06:56:57;48.67;41.71;65.74;;
186;Laerm;55473;48.800;9.002;2023-02-20T06:59:24;48.61;41.81;65.06;;
186;Laerm;55473;48.800;9.002;2023-02-20T07:01:49;48.74;42.63;66.46;;
186;Laerm;55473;48.800;9.002;2023-02-20T07:04:23;48.54;42.73;58.34;;
186;Laerm;55473;48.800;9.002;2023-02-20T07:06:49;47.82;43.31;57.82;;
186;Laerm;55473;48.800;9.002;2023-02-20T07:09:15;48.80;42.09;67.98;;
186;Laerm;55473;48.800;9.002;2023-02-20T07:11:42;52.61;42.57;69.50;;
186;Laerm;55473;48.800;9.002;2023-02-20T07:14:08;54.95;42.39;71.62;;
186;Laerm;55473;48.800;9.002;2023-02-20T07:16:34;50.87;45.66;65.35;;
186;Laerm;55473;48.800;9.002;2023-02-20T07:19:00;51.35;45.39;66.51;;
186;Laerm;55473;48.800;9.002;2023-02-20T07:21:26;51.53;45.56;65.02;;
186;Laerm;55473;48.800;9.002;2023-02-20T07:23:52;54.47;43.92;70.08;;
186;Laerm;55473;48.800;9.002;2023-02-20T07:26:27;50.16;41.36;59.72;;
186;Laerm;55473;48.800;9.002;2023-02-20T07:28:55;49.71;42.69;65.13;;
186;Laerm;55473;48.800;9.002;2023-02-20T07:31:24;49.19;43.60;61.11;;
186;Laerm;55473;48.800;9.002;2023-02-20T07:33:50;51.98;45.33;64.50;;
186;Laerm;55473;48.800;9.002;2023-02-20T07:36:17;53.05;44.06;63.12;;
186;Laerm;55473;48.800;9.002;2023-02-20T07:38:51;46.54;40.60;60.04;;
186;Laerm;55473;48.800;9.002;2023-02-20T07:41:17;48.30;41.38;66.96;;
186;Laerm;55473;48.800;9.002;2023-02-20T07:43:44;44.21;40.08;53.15;;
186;Laerm;55473;48.800;9.002;2023-02-20T07:46:10;49.31;39.34;64.59;;
186;Laerm;55473;48.800;9.002;2023-02-20T07:48:35;47.82;41.31;61.10;;
186;Laerm;55473;48.800;9.002;2023-02-20T07:51:02;47.22;42.00;58.84;;
186;Laerm;55473;48.800;9.002;2023-02-20T07:53:28;47.78;41.35;60.22;;
186;Laerm;55473;48.800;9.002;2023-02-20T07:55:53;48.45;39.88;68.40;;
186;Laerm;55473;48.800;9.002;2023-02-20T07:58:19;52.48;40.51;73.37;;
186;Laerm;55473;48.800;9.002;2023-02-20T08:00:45;48.56;41.15;61.36;;
186;Laerm;55473;48.800;9.002;2023-02-20T08:03:11;49.06;44.03;56.23;;
186;Laerm;55473;48.800;9.002;2023-02-20T08:05:37;45.34;40.14;58.00;;
186;Laerm;55473;48.800;9.002;2023-02-20T08:08:03;46.68;40.34;60.91;;
186;Laerm;55473;48.800;9.002;2023-02-20T08:10:29;47.15;40.16;59.96;;
186;Laerm;55473;48.800;9.002;2023-02-20T08:12:55;46.53;40.47;56.77;;
186;Laerm;55473;48.800;9.002;2023-02-20T08:15:22;49.49;41.37;69.79;;
186;Laerm;55473;48.800;9.002;2023-02-20T08:17:48;48.01;41.02;69.15;;
186;Laerm;55473;48.800;9.002;2023-02-20T08:20:16;47.25;40.03;60.60;;
186;Laerm;55473;48.800;9.002;2023-02-20T08:22:47;45.74;39.73;56.44;;
186;Laerm;55473;48.800;9.002;2023-02-20T08:25:15;48.31;39.24;60.45;;
186;Laerm;55473;48.800;9.002;2023-02-20T08:27:48;51.89;37.82;66.85;;
186;Laerm;55473;48.800;9.002;2023-02-20T08:30:25;53.43;44.14;65.10;;
186;Laerm;55473;48.800;9.002;2023-02-20T08:32:54;56.34;48.43;72.15;;
186;Laerm;55473;48.800;9.002;2023-02-20T08:35:21;54.21;50.02;68.20;;
186;Laerm;55473;48.800;9.002;2023-02-20T08:37:49;54.06;50.17;60.83;;
186;Laerm;55473;48.800;9.002;2023-02-20T08:40:15;55.08;50.31;65.62;;
186;Laerm;55473;48.800;9.002;2023-02-20T08:42:41;54.10;41.63;63.32;;
186;Laerm;55473;48.800;9.002;2023-02-20T08:45:07;48.07;40.94;57.49;;
186;Laerm;55473;48.800;9.002;2023-02-20T08:47:34;52.18;48.03;59.51;;
186;Laerm;55473;48.800;9.002;2023-02-20T08:50:00;54.20;43.95;60.49;;
186;Laerm;55473;48.800;9.002;2023-02-20T08:52:26;70.45;45.98;91.04;;
186;Laerm;55473;48.800;9.002;2023-02-20T08:54:52;52.47;48.20;61.40;;
186;Laerm;55473;48.800;9.002;2023-02-20T08:57:18;50.06;40.57;59.81;;
186;Laerm;55473;48.800;9.002;2023-02-20T08:59:45;52.56;46.00;69.45;;
186;Laerm;55473;48.800;9.002;2023-02-20T09:02:23;52.34;45.31;62.67;;
186;Laerm;55473;48.800;9.002;2023-02-20T09:04:50;52.89;43.90;71.43;;
186;Laerm;55473;48.800;9.002;2023-02-20T09:07:16;50.51;42.34;67.34;;
186;Laerm;55473;48.800;9.002;2023-02-20T09:09:42;48.26;42.13;60.09;;
186;Laerm;55473;48.800;9.002;2023-02-20T09:12:14;50.73;42.27;66.25;;
186;Laerm;55473;48.800;9.002;2023-02-20T09:14:40;49.93;40.01;64.16;;
186;Laerm;55473;48.800;9.002;2023-02-20T09:17:06;49.88;39.83;64.18;;
186;Laerm;55473;48.800;9.002;2023-02-20T09:19:35;47.81;40.05;60.97;;
186;Laerm;55473;48.800;9.002;2023-02-20T09:22:01;46.46;39.29;58.31;;
186;Laerm;55473;48.800;9.002;2023-02-20T09:24:27;48.18;38.48;64.57;;
186;Laerm;55473;48.800;9.002;2023-02-20T09:26:57;50.83;40.03;68.30;;
186;Laerm;55473;48.800;9.002;2023-02-20T09:29:23;49.02;41.70;65.65;;
186;Laerm;55473;48.800;9.002;2023-02-20T09:31:49;55.46;41.13;70.50;;
186;Laerm;55473;48.800;9.002;2023-02-20T09:34:16;49.81;38.23;64.95;;
186;Laerm;55473;48.800;9.002;2023-02-20T09:36:46;47.31;39.72;61.43;;
186;Laerm;55473;48.800;9.002;2023-02-20T09:39:12;45.22;39.75;58.10;;
186;Laerm;55473;48.800;9.002;2023-02-20T09:45:18;49.82;40.82;63.49;;
186;Laerm;55473;48.800;9.002;2023-02-20T09:50:42;48.88;41.54;62.13;;
186;Laerm;55473;48.800;9.002;2023-02-20T09:55:48;45.21;41.10;56.23;;
186;Laerm;55473;48.800;9.002;2023-02-20T10:01:00;45.07;39.42;58.00;;
186;Laerm;55473;48.800;9.002;2023-02-20T10:03:55;48.17;38.90;61.42;;
186;Laerm;55473;48.800;9.002;2023-02-20T10:06:31;49.06;43.25;55.62;;
186;Laerm;55473;48.800;9.002;2023-02-20T10:08:58;44.96;40.46;60.53;;
186;Laerm;55473;48.800;9.002;2023-02-20T10:12:01;44.95;39.44;60.10;;
186;Laerm;55473;48.800;9.002;2023-02-20T10:15:20;46.28;37.81;63.00;;
186;Laerm;55473;48.800;9.002;2023-02-20T10:17:56;45.28;37.12;57.90;;
186;Laerm;55473;48.800;9.002;2023-02-20T10:23:48;45.39;37.71;64.85;;
186;Laerm;55473;48.800;9.002;2023-02-20T10:26:42;47.99;37.79;69.93;;
186;Laerm;55473;48.800;9.002;2023-02-20T10:29:24;47.42;37.86;69.36;;
186;Laerm;55473;48.800;9.002;2023-02-20T10:32:05;50.05;37.38;66.97;;
186;Laerm;55473;48.800;9.002;2023-02-20T10:34:56;47.08;38.68;63.74;;
186;Laerm;55473;48.800;9.002;2023-02-20T10:37:31;45.81;39.47;63.20;;
186;Laerm;55473;48.800;9.002;2023-02-20T10:43:21;43.41;37.59;56.34;;
186;Laerm;55473;48.800;9.002;2023-02-20T10:46:04;43.55;39.58;64.74;;
186;Laerm;55473;48.800;9.002;2023-02-20T10:48:34;45.50;39.16;59.63;;
186;Laerm;55473;48.800;9.002;2023-02-20T10:51:27;48.45;39.16;70.22;;
186;Laerm;55473;48.800;9.002;2023-02-20T10:55:02;42.79;37.63;65.17;;
186;Laerm;55473;48.800;9.002;2023-02-20T10:57:33;48.35;39.01;63.97;;
186;Laerm;55473;48.800;9.002;2023-02-20T11:00:12;54.19;39.37;84.90;;
186;Laerm;55473;48.800;9.002;2023-02-20T11:05:36;46.58;39.73;59.05;;
186;Laerm;55473;48.800;9.002;2023-02-20T11:08:03;45.03;38.81;63.10;;
186;Laerm;55473;48.800;9.002;2023-02-20T11:10:29;42.67;37.27;58.02;;
186;Laerm;55473;48.800;9.002;2023-02-20T11:12:58;42.78;35.58;57.39;;
186;Laerm;55473;48.800;9.002;2023-02-20T11:15:29;41.62;37.29;51.73;;
186;Laerm;55473;48.800;9.002;2023-02-20T11:17:58;42.76;38.19;56.01;;
186;Laerm;55473;48.800;9.002;2023-02-20T11:23:01;48.86;40.63;58.85;;
186;Laerm;55473;48.800;9.002;2023-02-20T11:25:36;45.24;36.99;59.84;;
186;Laerm;55473;48.800;9.002;2023-02-20T11:28:10;60.07;36.83;76.52;;
186;Laerm;55473;48.800;9.002;2023-02-20T11:33:46;46.82;37.09;74.81;;
186;Laerm;55473;48.800;9.002;2023-02-20T11:36:19;46.00;37.52;58.78;;
186;Laerm;55473;48.800;9.002;2023-02-20T11:38:48;49.95;37.29;71.92;;
186;Laerm;55473;48.800;9.002;2023-02-20T11:41:34;47.79;38.31;67.97;;
186;Laerm;55473;48.800;9.002;2023-02-20T11:46:39;43.76;36.27;53.82;;
186;Laerm;55473;48.800;9.002;2023-02-20T11:49:26;45.67;37.38;58.47;;
186;Laerm;55473;48.800;9.002;2023-02-20T11:52:15;47.43;39.05;60.40;;
186;Laerm;55473;48.800;9.002;2023-02-20T11:54:44;67.16;36.55;88.86;;
186;Laerm;55473;48.800;9.002;2023-02-20T11:59:46;51.23;46.72;68.92;;
186;Laerm;55473;48.800;9.002;2023-02-20T12:05:06;50.78;47.63;65.99;;
186;Laerm;55473;48.800;9.002;2023-02-20T12:07:56;50.93;47.28;61.97;;
186;Laerm;55473;48.800;9.002;2023-02-20T12:10:43;50.15;47.23;59.35;;
186;Laerm;55473;48.800;9.002;2023-02-20T12:13:15;67.73;41.55;93.72;;
186;Laerm;55473;48.800;9.002;2023-02-20T12:22:03;44.29;38.30;70.07;;
186;Laerm;55473;48.800;9.002;2023-02-20T12:25:27;42.26;36.99;57.71;;
186;Laerm;55473;48.800;9.002;2023-02-20T12:31:04;49.27;40.02;67.35;;
186;Laerm;55473;48.800;9.002;2023-02-20T12:36:55;47.98;37.64;59.02;;
186;Laerm;55473;48.800;9.002;2023-02-20T12:42:48;49.70;38.61;65.60;;
186;Laerm;55473;48.800;9.002;2023-02-20T12:45:22;49.49;40.18;70.47;;
186;Laerm;55473;48.800;9.002;2023-02-20T12:51:16;47.14;38.65;62.22;;
186;Laerm;55473;48.800;9.002;2023-02-20T12:56:24;47.18;37.26;56.82;;
186;Laerm;55473;48.800;9.002;2023-02-20T12:59:27;44.75;37.05;55.48;;
186;Laerm;55473;48.800;9.002;2023-02-20T13:02:13;43.90;37.64;61.43;;
186;Laerm;55473;48.800;9.002;2023-02-20T13:04:56;42.30;38.17;52.02;;
186;Laerm;55473;48.800;9.002;2023-02-20T13:07:55;43.25;38.65;59.20;;
186;Laerm;55473;48.800;9.002;2023-02-20T13:10:26;44.44;37.93;57.99;;
186;Laerm;55473;48.800;9.002;2023-02-20T13:12:53;43.81;37.79;59.25;;
186;Laerm;55473;48.800;9.002;2023-02-20T13:18:53;44.51;38.96;63.79;;
186;Laerm;55473;48.800;9.002;2023-02-20T13:21:28;43.15;38.22;52.62;;
186;Laerm;55473;48.800;9.002;2023-02-20T13:26:51;42.17;37.74;64.72;;
186;Laerm;55473;48.800;9.002;2023-02-20T13:29:28;42.81;38.02;53.23;;
186;Laerm;55473;48.800;9.002;2023-02-20T13:34:44;46.44;39.33;68.37;;
186;Laerm;55473;48.800;9.002;2023-02-20T13:37:49;45.15;38.86;62.30;;
186;Laerm;55473;48.800;9.002;2023-02-20T13:45:40;47.58;37.96;61.95;;
186;Laerm;55473;48.800;9.002;2023-02-20T13:54:21;51.10;39.16;71.23;;
186;Laerm;55473;48.800;9.002;2023-02-20T13:56:58;44.11;37.97;59.17;;
186;Laerm;55473;48.800;9.002;2023-02-20T13:59:28;43.98;37.59;57.18;;
186;Laerm;55473;48.800;9.002;2023-02-20T14:02:20;44.66;37.89;62.29;;
186;Laerm;55473;48.800;9.002;2023-02-20T14:07:44;46.83;39.16;56.92;;
186;Laerm;55473;48.800;9.002;2023-02-20T14:10:39;47.93;38.79;58.87;;
186;Laerm;55473;48.800;9.002;2023-02-20T14:13:19;56.52;38.39;71.21;;
186;Laerm;55473;48.800;9.002;2023-02-20T14:15:53;42.74;37.89;59.31;;
186;Laerm;55473;48.800;9.002;2023-02-20T14:18:28;44.85;39.05;66.02;;
186;Laerm;55473;48.800;9.002;2023-02-20T14:21:14;48.13;39.56;62.25;;
186;Laerm;55473;48.800;9.002;2023-02-20T14:23:41;44.05;39.85;51.63;;
186;Laerm;55473;48.800;9.002;2023-02-20T14:26:33;44.51;38.12;57.57;;
186;Laerm;55473;48.800;9.002;2023-02-20T14:28:59;44.25;39.07;60.67;;
186;Laerm;55473;48.800;9.002;2023-02-20T14:31:33;47.48;39.05;61.19;;
186;Laerm;55473;48.800;9.002;2023-02-20T14:34:43;47.61;39.23;63.03;;
186;Laerm;55473;48.800;9.002;2023-02-20T14:40:13;46.11;38.99;56.44;;
186;Laerm;55473;48.800;9.002;2023-02-20T14:42:45;49.39;40.19;58.62;;
186;Laerm;55473;48.800;9.002;2023-02-20T14:45:24;53.57;39.42;65.88;;
186;Laerm;55473;48.800;9.002;2023-02-20T14:50:22;54.51;39.35;68.09;;
186;Laerm;55473;48.800;9.002;2023-02-20T14:53:01;42.54;38.04;53.86;;
186;Laerm;55473;48.800;9.002;2023-02-20T14:55:28;41.44;36.95;54.17;;
186;Laerm;55473;48.800;9.002;2023-02-20T14:57:54;44.59;37.43;62.00;;
186;Laerm;55473;48.800;9.002;2023-02-20T15:00:34;48.59;38.89;67.23;;
186;Laerm;55473;48.800;9.002;2023-02-20T15:03:17;46.85;38.82;69.55;;
186;Laerm;55473;48.800;9.002;2023-02-20T15:05:44;47.17;38.81;63.58;;
186;Laerm;55473;48.800;9.002;2023-02-20T15:10:47;47.68;40.42;64.24;;
186;Laerm;55473;48.800;9.002;2023-02-20T15:13:18;47.04;40.08;55.73;;
186;Laerm;55473;48.800;9.002;2023-02-20T15:15:51;46.70;39.57;54.97;;
186;Laerm;55473;48.800;9.002;2023-02-20T15:18:42;45.67;39.51;63.98;;
186;Laerm;55473;48.800;9.002;2023-02-20T15:21:11;50.22;39.87;66.04;;
186;Laerm;55473;48.800;9.002;2023-02-20T15:23:42;48.57;38.05;66.03;;
186;Laerm;55473;48.800;9.002;2023-02-20T15:26:35;45.27;37.55;63.47;;
186;Laerm;55473;48.800;9.002;2023-02-20T15:31:45;43.55;37.61;67.51;;
186;Laerm;55473;48.800;9.002;2023-02-20T15:34:21;42.27;37.32;58.99;;
186;Laerm;55473;48.800;9.002;2023-02-20T15:36:48;42.64;36.32;53.45;;
186;Laerm;55473;48.800;9.002;2023-02-20T15:39:16;44.73;38.20;56.50;;
186;Laerm;55473;48.800;9.002;2023-02-20T15:41:44;46.15;38.93;59.92;;
186;Laerm;55473;48.800;9.002;2023-02-20T15:44:10;53.17;38.30;71.56;;
186;Laerm;55473;48.800;9.002;2023-02-20T15:46:36;45.26;39.58;60.78;;
186;Laerm;55473;48.800;9.002;2023-02-20T15:49:03;48.39;40.44;60.79;;
186;Laerm;55473;48.800;9.002;2023-02-20T15:51:34;46.28;39.66;56.94;;
186;Laerm;55473;48.800;9.002;2023-02-20T15:54:02;46.25;39.11;65.11;;
186;Laerm;55473;48.800;9.002;2023-02-20T15:56:33;45.75;38.35;62.39;;
186;Laerm;55473;48.800;9.002;2023-02-20T15:59:10;45.48;37.91;66.23;;
186;Laerm;55473;48.800;9.002;2023-02-20T16:01:40;43.44;37.67;61.12;;
186;Laerm;55473;48.800;9.002;2023-02-20T16:04:07;45.93;37.77;67.34;;
186;Laerm;55473;48.800;9.002;2023-02-20T16:06:33;45.84;38.49;64.98;;
186;Laerm;55473;48.800;9.002;2023-02-20T16:08:59;47.19;37.96;59.76;;
186;Laerm;55473;48.800;9.002;2023-02-20T16:11:35;44.35;38.47;59.24;;
186;Laerm;55473;48.800;9.002;2023-02-20T16:14:02;48.10;37.83;63.94;;
186;Laerm;55473;48.800;9.002;2023-02-20T16:16:38;49.95;38.80;67.19;;
186;Laerm;55473;48.800;9.002;2023-02-20T16:19:19;47.50;38.66;67.83;;
186;Laerm;55473;48.800;9.002;2023-02-20T16:21:46;44.86;39.21;59.79;;
186;Laerm;55473;48.800;9.002;2023-02-20T16:24:13;45.81;38.38;62.32;;
186;Laerm;55473;48.800;9.002;2023-02-20T16:26:44;55.31;41.16;73.02;;
186;Laerm;55473;48.800;9.002;2023-02-20T16:29:21;55.90;39.00;72.82;;
186;Laerm;55473;48.800;9.002;2023-02-20T16:34:28;47.35;42.19;60.18;;
186;Laerm;55473;48.800;9.002;2023-02-20T16:36:59;45.45;41.85;56.33;;
186;Laerm;55473;48.800;9.002;2023-02-20T16:39:25;48.88;42.41;64.92;;
186;Laerm;55473;48.800;9.002;2023-02-20T16:41:52;44.89;40.30;57.45;;